Sunday, October 26, 2014, 12:58 AM CDT
Back to Local

KHDC, Hammond, Hammond Municipal Airport

Location: Hammond, LA, United States Lat: 30.521
Local Time: 12:58 AM CDT ( 5:58 GMT) Lon: -90.418
Time Zone: US/Central Elev: 42 ft

Show me the last for .
Show Coded

Time T Td Feel RH Dir Speed Gust Alt SLP Vis Weather Sky Remarks
2014-10-26 00:35 57 54 - 87 - Calm - 30.08 - 10 CLR None
2014-10-26 00:15 59 55 - 87 - Calm - 30.09 - 10 CLR None
2014-10-25 23:55 59 55 - 87 - Calm - 30.09 - 10 CLR None
2014-10-25 23:35 59 55 - 87 - Calm - 30.10 - 10 CLR None
2014-10-25 23:15 59 55 - 87 - Calm - 30.10 - 10 CLR None
2014-10-25 22:55 59 55 - 87 - Calm - 30.11 - 10 CLR None
2014-10-25 22:35 61 55 - 82 - Calm - 30.11 - 10 CLR None
2014-10-25 22:15 61 55 - 82 - Calm - 30.11 - 10 CLR None
2014-10-25 21:55 63 57 - 82 - Calm - 30.11 - 10 CLR None
2014-10-25 21:35 63 57 - 82 - Calm - 30.11 - 10 CLR None
2014-10-25 21:15 63 57 - 82 - Calm - 30.11 - 10 CLR None
2014-10-25 20:55 63 57 - 82 - Calm - 30.11 - 10 CLR None
2014-10-25 20:35 63 57 - 82 - Calm - 30.10 - 10 CLR None
2014-10-25 20:15 64 57 - 77 - Calm - 30.10 - 10 CLR None
2014-10-25 19:55 64 59 - 82 - Calm - 30.10 - 10 CLR None
2014-10-25 19:35 64 57 - 77 - Calm - 30.10 - 10 CLR None
2014-10-25 19:15 66 57 - 72 - Calm - 30.09 - 10 CLR None
2014-10-25 18:55 68 57 - 68 - Calm - 30.09 - 10 CLR None
2014-10-25 18:35 70 57 - 64 - Calm - 30.08 - 10 CLR None
2014-10-25 18:15 73 57 77 56 - Calm - 30.08 - 10 CLR None
2014-10-25 17:55 77 55 78 47 - Calm - 30.08 - 10 CLR None
2014-10-25 17:35 81 52 - 36 320° 3 - 30.08 - 10 CLR None
2014-10-25 17:15 81 52 - 36 330° 5 - 30.08 - 10 CLR None
2014-10-25 16:55 82 50 - 32 310° 8 - 30.08 - 10 CLR None
2014-10-25 16:35 82 52 - 34 290° 7 - 30.08 - 10 CLR None
2014-10-25 16:15 82 50 - 32 350° 6 - 30.08 - 10 CLR None
2014-10-25 15:55 82 50 - 32 340° 7 - 30.08 - 10 CLR None
2014-10-25 15:35 82 50 - 32 330° 6 - 30.09 - 10 CLR None
2014-10-25 15:15 82 50 - 32 350° 9 - 30.09 - 10 CLR None
2014-10-25 14:55 82 50 - 32 330° 6 - 30.10 - 10 CLR None
2014-10-25 14:35 82 52 - 34 310° 8 - 30.10 - 10 CLR None
2014-10-25 14:15 82 52 - 34 330° 7 - 30.11 - 10 CLR None
2014-10-25 13:55 82 52 - 34 10° 6 - 30.11 - 10 CLR None
2014-10-25 13:35 81 52 - 36 310° 3 - 30.12 - 10 CLR None
2014-10-25 13:15 81 52 - 36 20° 3 - 30.13 - 10 CLR None
2014-10-25 12:55 81 52 - 36 - Calm - 30.14 - 10 CLR None
2014-10-25 12:35 79 52 - 39 340° 3 - 30.15 - 10 CLR None
2014-10-25 12:15 79 52 - 39 10° 6 - 30.16 - 10 CLR None
2014-10-25 11:55 77 50 - 38 - Calm - 30.16 - 10 CLR None
2014-10-25 11:35 75 50 77 41 360° 6 - 30.17 - 10 CLR None
2014-10-25 11:15 75 50 77 41 30° 5 - 30.18 - 10 CLR None
2014-10-25 10:55 73 50 76 43 350° 3 - 30.18 - 10 CLR None
2014-10-25 10:35 70 50 - 49 50° 6 - 30.18 - 10 CLR None
2014-10-25 10:15 70 50 - 49 - Calm - 30.18 - 10 CLR None
2014-10-25 09:55 68 50 - 52 20° 5 - 30.18 - 10 CLR None
2014-10-25 09:35 64 48 - 55 50° 6 - 30.18 - 10 CLR None
2014-10-25 09:15 63 50 - 63 - Calm - 30.18 - 10 CLR None
2014-10-25 08:55 59 50 - 72 350° 5 - 30.18 - 10 CLR None
2014-10-25 08:35 55 48 - 76 330° 3 - 30.17 - 10 CLR None
2014-10-25 08:15 52 46 - 81 - Calm - 30.16 - 10 CLR None
2014-10-25 07:35 46 43 - 87 - Calm - 30.15 - 10 CLR None
2014-10-25 07:15 46 43 - 87 - Calm - 30.15 - 10 CLR None
2014-10-25 06:55 45 43 - 93 - Calm - 30.14 - 10 CLR None
2014-10-25 06:35 46 43 - 87 - Calm - 30.14 - 10 CLR None
2014-10-25 06:15 46 43 - 87 - Calm - 30.14 - 10 CLR None
2014-10-25 05:55 46 43 - 87 - Calm - 30.13 - 10 CLR None
2014-10-25 05:35 46 43 - 87 - Calm - 30.13 - 10 CLR None
2014-10-25 05:15 46 43 - 87 - Calm - 30.13 - 10 CLR None
2014-10-25 04:55 46 43 - 87 - Calm - 30.12 - 10 CLR None
2014-10-25 04:35 46 45 - 93 - Calm - 30.12 - 10 CLR None
2014-10-25 04:15 46 45 - 93 - Calm - 30.11 - 10 CLR None
2014-10-25 03:55 46 45 45 93 330° 3 - 30.12 - 10 CLR None
2014-10-25 03:35 48 45 - 87 - Calm - 30.11 - 10 CLR None
2014-10-25 02:55 48 45 46 87 340° 5 - 30.12 - 10 CLR None
2014-10-25 02:35 48 45 - 87 - Calm - 30.11 - 10 CLR None
2014-10-25 02:15 48 45 - 87 - Calm - 30.12 - 10 CLR None
2014-10-25 01:55 50 46 - 87 - Calm - 30.12 - 10 CLR None
2014-10-25 01:35 50 46 - 87 - Calm - 30.12 - 10 CLR None
2014-10-25 01:15 50 46 - 87 - Calm - 30.12 - 10 CLR None

Support USWX by starting your Amazon purchase here.